Game Details

[ Leader Board ] [ Players ] [ Opponents ] [ Guilds ] [ Areas ]

Game Details for: Xerxes

Game Progress

Quest Completed on Day
Ackeron Savior 233
Artemis Shutdown 230
Solar Rejuvenator 229
Plasma Cube 222
Trader 8 216
Trader 9 193
Slayer 193
Arena 4 175
Xornium 164
Arena 5 162
Pulse Matrix 133
Trader 2 85
Data Cubes 83
Arena 2 74
Trader 4 67
Trader 3 50
Mountain Pass 49
Chaak Mine 39
Arena 1 27
Dave and Heidi 20
Mushroom Stew 12

Full Telemetry

Time Game Day Game Hour Game Minute Type Details Value Extra Zone X Y Credits Guild
11/2/2016 9:37:53 PM 216 0 0 Daily Xerxes 11006 Wilderness5 2 17 16189 Psionic
11/1/2016 9:48:26 AM 191 1 53 Combat Lv 3 Rockman 0 Win Catacombs3 2 17 6122 Psionic
10/31/2016 2:26:14 AM 164 7 22 Combat Lv 5 Rock Troll 0 Win Catacombs3 2 15 10139 Psionic
10/31/2016 2:23:19 AM 164 7 20 Combat Lv 4 Rock Toad 0 Win Catacombs3 2 19 9877 Psionic
10/31/2016 2:02:07 AM 163 20 0 Save 0 2 Catacombs1 2 3 8055 Psionic
10/31/2016 1:19:06 AM 156 15 14 Combat Lv 2 Thief 0 Win ThiefHideout 2 17 2601 Psionic
10/28/2016 11:35:59 PM 156 7 39 Combat Lv 5 Rock Troll 0 Win Catacombs3 2 14 1690 Psionic
10/28/2016 11:34:41 PM 156 7 37 Combat Lv 4 Rock Toad 0 Win Catacombs3 2 19 1430 Psionic
10/15/2016 12:33:53 PM 2 8 25 Daily ???? 472 BuildingHouse1 2 3 0 None
11/3/2016 7:35:12 AM 224 7 4 Combat Lv 3 Wisp 0 Win Wilderness5 3 18 29449 Psionic
11/2/2016 10:48:35 PM 219 14 13 Equip Alien Shiny Kinetic Field 709 Wilderness5 3 15 30275 Psionic
11/2/2016 10:48:08 PM 219 14 11 Combat Lv 3 Spectral Bear 0 Win Wilderness5 3 15 30275 Psionic
11/2/2016 10:25:21 PM 218 20 21 Combat Lv 2 X Series 0 Win Base3 3 16 26835 Psionic
11/1/2016 9:50:36 AM 191 2 12 Combat Lv 5 Rock Troll 0 Win Catacombs3 3 9 6338 Psionic
10/31/2016 2:38:08 AM 164 7 47 Combat Lv 5 Rock Troll 0 Win Catacombs3 3 5 11700 Psionic
10/28/2016 11:42:41 PM 156 8 23 Combat Lv 3 Rock Toad 0 OpponentFlee Catacombs2 3 6 2359 Psionic
10/28/2016 2:59:41 PM 138 20 57 Combat Lv 2 Chaak Blazer 0 Win OldLab1 3 4 3955 Psionic
10/16/2016 9:00:39 PM 58 6 2 Combat Lv 4 Thug 0 Win ThiefGuardhouse 3 11 2577 Mercenary
10/16/2016 8:59:24 PM 58 5 57 Combat Lv 4 Thug 0 Win ThiefGuardhouse 3 6 2347 Mercenary
10/16/2016 8:58:21 PM 58 5 50 Combat Lv 1 Cyber Hound 0 Win ThiefGuardhouse 3 5 2210 Mercenary
10/16/2016 4:10:04 AM 49 2 43 Combat Lv 5 Slime Mold 0 Win MountainRange1 3 7 3783 Mercenary
10/15/2016 10:58:09 PM 37 10 17 Combat Lv 1 Creeping Vines 0 Win InsectForest 3 19 685 Mercenary
11/5/2016 5:27:09 PM 231 20 41 Combat Lv 2 Chaak Overlord 0 Win Wilderness6 4 7 38224 Psionic
11/5/2016 5:24:56 PM 231 20 41 Combat Lv 3 Chaak Elite 0 Win Wilderness6 4 7 37597 Psionic
11/5/2016 4:40:12 PM 227 8 35 Daily Xerxes 11338 Village7 4 18 34871 Psionic
11/3/2016 7:44:52 AM 225 1 48 Daily Xerxes 11325 Village10 4 12 30114 Psionic
11/2/2016 10:28:27 PM 218 20 42 Combat Lv 2 Annihilator 0 Win Base3 4 8 27842 Psionic
10/31/2016 9:36:11 PM 175 2 46 Daily Xerxes 9281 Village7 4 18 9462 Psionic
10/31/2016 2:36:39 AM 164 7 45 Combat Lv 3 Rockman 0 Win Catacombs4 4 4 11459 Psionic
10/31/2016 2:29:17 AM 164 7 28 Combat Lv 5 Rockman 0 Win Catacombs4 4 7 10438 Psionic